<?xml version="1.0" encoding="UTF-8" standalone="no" ?>
<gpx xmlns="http://www.topografix.com/GPX/1/1" xmlns:xsi="http://www.w3.org/2001/XMLSchema-instance" xsi:schemaLocation="http://www.topografix.com/GPX/1/1 http://www.topografix.com/GPX/1/1/gpx.xsd" version="1.1" creator="VisuGPX - https://www.visugpx.com">
  <metadata>
    <name>Sentier De La Brague Valbonne Biot Sans Boucle</name>
  </metadata>
  <trk>
    <name><![CDATA[ValbonneBiot]]></name>
    <trkseg>
      <trkpt lat="43.64123" lon="7.00619">
        <ele>201.533569</ele>
        <time>2009-07-13T14:11:18Z</time>
      </trkpt>
      <trkpt lat="43.64125" lon="7.00623">
        <ele>201.052856</ele>
        <time>2009-07-13T14:11:26Z</time>
      </trkpt>
      <trkpt lat="43.64131" lon="7.00633">
        <ele>201.052856</ele>
        <time>2009-07-13T14:11:33Z</time>
      </trkpt>
      <trkpt lat="43.64133" lon="7.00652">
        <ele>200.091675</ele>
        <time>2009-07-13T14:11:45Z</time>
      </trkpt>
      <trkpt lat="43.64134" lon="7.00653">
        <ele>200.091675</ele>
        <time>2009-07-13T14:11:46Z</time>
      </trkpt>
      <trkpt lat="43.64148" lon="7.00674">
        <ele>200.091675</ele>
        <time>2009-07-13T14:11:58Z</time>
      </trkpt>
      <trkpt lat="43.64149" lon="7.00701">
        <ele>199.130127</ele>
        <time>2009-07-13T14:12:08Z</time>
      </trkpt>
      <trkpt lat="43.6416" lon="7.00736">
        <ele>200.091675</ele>
        <time>2009-07-13T14:12:17Z</time>
      </trkpt>
      <trkpt lat="43.64163" lon="7.00754">
        <ele>197.688232</ele>
        <time>2009-07-13T14:12:27Z</time>
      </trkpt>
      <trkpt lat="43.64154" lon="7.00766">
        <ele>194.32373</ele>
        <time>2009-07-13T14:12:39Z</time>
      </trkpt>
      <trkpt lat="43.64151" lon="7.00767">
        <ele>193.843018</ele>
        <time>2009-07-13T14:12:41Z</time>
      </trkpt>
      <trkpt lat="43.64124" lon="7.00775">
        <ele>190.958984</ele>
        <time>2009-07-13T14:12:54Z</time>
      </trkpt>
      <trkpt lat="43.64109" lon="7.00768">
        <ele>189.516968</ele>
        <time>2009-07-13T14:13:03Z</time>
      </trkpt>
      <trkpt lat="43.64094" lon="7.00774">
        <ele>189.036377</ele>
        <time>2009-07-13T14:13:08Z</time>
      </trkpt>
      <trkpt lat="43.64078" lon="7.00801">
        <ele>189.516968</ele>
        <time>2009-07-13T14:13:16Z</time>
      </trkpt>
      <trkpt lat="43.64071" lon="7.00825">
        <ele>189.036377</ele>
        <time>2009-07-13T14:13:21Z</time>
      </trkpt>
      <trkpt lat="43.64065" lon="7.00848">
        <ele>189.036377</ele>
        <time>2009-07-13T14:13:28Z</time>
      </trkpt>
      <trkpt lat="43.64065" lon="7.00881">
        <ele>188.555786</ele>
        <time>2009-07-13T14:13:37Z</time>
      </trkpt>
      <trkpt lat="43.64065" lon="7.00892">
        <ele>188.555786</ele>
        <time>2009-07-13T14:13:43Z</time>
      </trkpt>
      <trkpt lat="43.64051" lon="7.00944">
        <ele>186.633179</ele>
        <time>2009-07-13T14:13:55Z</time>
      </trkpt>
      <trkpt lat="43.64039" lon="7.00972">
        <ele>185.671753</ele>
        <time>2009-07-13T14:14:03Z</time>
      </trkpt>
      <trkpt lat="43.64025" lon="7.00989">
        <ele>185.191162</ele>
        <time>2009-07-13T14:14:11Z</time>
      </trkpt>
      <trkpt lat="43.64005" lon="7.01017">
        <ele>185.191162</ele>
        <time>2009-07-13T14:14:20Z</time>
      </trkpt>
      <trkpt lat="43.63988" lon="7.01035">
        <ele>185.191162</ele>
        <time>2009-07-13T14:14:27Z</time>
      </trkpt>
      <trkpt lat="43.63983" lon="7.01048">
        <ele>185.191162</ele>
        <time>2009-07-13T14:14:31Z</time>
      </trkpt>
      <trkpt lat="43.63959" lon="7.01077">
        <ele>185.191162</ele>
        <time>2009-07-13T14:14:42Z</time>
      </trkpt>
      <trkpt lat="43.63947" lon="7.01101">
        <ele>185.191162</ele>
        <time>2009-07-13T14:14:50Z</time>
      </trkpt>
      <trkpt lat="43.63925" lon="7.01133">
        <ele>186.152466</ele>
        <time>2009-07-13T14:15:03Z</time>
      </trkpt>
      <trkpt lat="43.63914" lon="7.0115">
        <ele>186.152466</ele>
        <time>2009-07-13T14:15:10Z</time>
      </trkpt>
      <trkpt lat="43.6389" lon="7.01188">
        <ele>187.11377</ele>
        <time>2009-07-13T14:15:22Z</time>
      </trkpt>
      <trkpt lat="43.6388" lon="7.01199">
        <ele>188.075073</ele>
        <time>2009-07-13T14:15:27Z</time>
      </trkpt>
      <trkpt lat="43.63873" lon="7.01215">
        <ele>189.516968</ele>
        <time>2009-07-13T14:15:33Z</time>
      </trkpt>
      <trkpt lat="43.63866" lon="7.01227">
        <ele>190.478394</ele>
        <time>2009-07-13T14:15:39Z</time>
      </trkpt>
      <trkpt lat="43.63865" lon="7.0126">
        <ele>192.881714</ele>
        <time>2009-07-13T14:15:51Z</time>
      </trkpt>
      <trkpt lat="43.63877" lon="7.0129">
        <ele>195.284912</ele>
        <time>2009-07-13T14:16:03Z</time>
      </trkpt>
      <trkpt lat="43.63885" lon="7.01318">
        <ele>195.284912</ele>
        <time>2009-07-13T14:16:15Z</time>
      </trkpt>
      <trkpt lat="43.63881" lon="7.01362">
        <ele>191.920288</ele>
        <time>2009-07-13T14:16:26Z</time>
      </trkpt>
      <trkpt lat="43.63876" lon="7.01381">
        <ele>188.555786</ele>
        <time>2009-07-13T14:16:34Z</time>
      </trkpt>
      <trkpt lat="43.63868" lon="7.01403">
        <ele>185.671753</ele>
        <time>2009-07-13T14:16:42Z</time>
      </trkpt>
      <trkpt lat="43.63859" lon="7.01428">
        <ele>182.307129</ele>
        <time>2009-07-13T14:16:50Z</time>
      </trkpt>
      <trkpt lat="43.63857" lon="7.01447">
        <ele>179.423218</ele>
        <time>2009-07-13T14:16:57Z</time>
      </trkpt>
      <trkpt lat="43.63855" lon="7.01504">
        <ele>176.539307</ele>
        <time>2009-07-13T14:17:10Z</time>
      </trkpt>
      <trkpt lat="43.63861" lon="7.01538">
        <ele>175.09729</ele>
        <time>2009-07-13T14:17:17Z</time>
      </trkpt>
      <trkpt lat="43.63871" lon="7.01585">
        <ele>173.655273</ele>
        <time>2009-07-13T14:17:27Z</time>
      </trkpt>
      <trkpt lat="43.63887" lon="7.01625">
        <ele>173.174683</ele>
        <time>2009-07-13T14:17:37Z</time>
      </trkpt>
      <trkpt lat="43.63889" lon="7.01636">
        <ele>173.655273</ele>
        <time>2009-07-13T14:17:40Z</time>
      </trkpt>
      <trkpt lat="43.63887" lon="7.01645">
        <ele>172.69397</ele>
        <time>2009-07-13T14:17:44Z</time>
      </trkpt>
      <trkpt lat="43.63883" lon="7.01657">
        <ele>170.771362</ele>
        <time>2009-07-13T14:17:48Z</time>
      </trkpt>
      <trkpt lat="43.63885" lon="7.01662">
        <ele>170.771362</ele>
        <time>2009-07-13T14:17:50Z</time>
      </trkpt>
      <trkpt lat="43.63878" lon="7.01677">
        <ele>169.810059</ele>
        <time>2009-07-13T14:17:54Z</time>
      </trkpt>
      <trkpt lat="43.6387" lon="7.0169">
        <ele>169.810059</ele>
        <time>2009-07-13T14:17:59Z</time>
      </trkpt>
      <trkpt lat="43.63863" lon="7.01717">
        <ele>169.329468</ele>
        <time>2009-07-13T14:18:05Z</time>
      </trkpt>
      <trkpt lat="43.63868" lon="7.01737">
        <ele>168.848755</ele>
        <time>2009-07-13T14:18:11Z</time>
      </trkpt>
      <trkpt lat="43.63885" lon="7.01771">
        <ele>168.848755</ele>
        <time>2009-07-13T14:18:23Z</time>
      </trkpt>
      <trkpt lat="43.63906" lon="7.01807">
        <ele>167.406738</ele>
        <time>2009-07-13T14:18:35Z</time>
      </trkpt>
      <trkpt lat="43.63907" lon="7.01815">
        <ele>167.406738</ele>
        <time>2009-07-13T14:18:38Z</time>
      </trkpt>
      <trkpt lat="43.63908" lon="7.01826">
        <ele>167.887329</ele>
        <time>2009-07-13T14:18:43Z</time>
      </trkpt>
      <trkpt lat="43.63905" lon="7.01882">
        <ele>166.926025</ele>
        <time>2009-07-13T14:18:56Z</time>
      </trkpt>
      <trkpt lat="43.63899" lon="7.01896">
        <ele>166.445313</ele>
        <time>2009-07-13T14:19:00Z</time>
      </trkpt>
      <trkpt lat="43.639" lon="7.01936">
        <ele>165.003418</ele>
        <time>2009-07-13T14:19:10Z</time>
      </trkpt>
      <trkpt lat="43.639" lon="7.01956">
        <ele>165.003418</ele>
        <time>2009-07-13T14:19:15Z</time>
      </trkpt>
      <trkpt lat="43.63904" lon="7.01974">
        <ele>164.042114</ele>
        <time>2009-07-13T14:19:20Z</time>
      </trkpt>
      <trkpt lat="43.63924" lon="7.02027">
        <ele>164.042114</ele>
        <time>2009-07-13T14:19:33Z</time>
      </trkpt>
      <trkpt lat="43.63938" lon="7.02041">
        <ele>163.080811</ele>
        <time>2009-07-13T14:19:39Z</time>
      </trkpt>
      <trkpt lat="43.63934" lon="7.02079">
        <ele>161.638916</ele>
        <time>2009-07-13T14:19:50Z</time>
      </trkpt>
      <trkpt lat="43.63933" lon="7.02084">
        <ele>161.638916</ele>
        <time>2009-07-13T14:19:53Z</time>
      </trkpt>
      <trkpt lat="43.63934" lon="7.02089">
        <ele>162.119507</ele>
        <time>2009-07-13T14:19:57Z</time>
      </trkpt>
      <trkpt lat="43.63926" lon="7.02101">
        <ele>163.080811</ele>
        <time>2009-07-13T14:20:00Z</time>
      </trkpt>
      <trkpt lat="43.63928" lon="7.02122">
        <ele>162.600098</ele>
        <time>2009-07-13T14:20:06Z</time>
      </trkpt>
      <trkpt lat="43.6394" lon="7.02129">
        <ele>162.119507</ele>
        <time>2009-07-13T14:20:09Z</time>
      </trkpt>
      <trkpt lat="43.63944" lon="7.02155">
        <ele>161.638916</ele>
        <time>2009-07-13T14:20:17Z</time>
      </trkpt>
      <trkpt lat="43.63946" lon="7.02188">
        <ele>160.67749</ele>
        <time>2009-07-13T14:20:24Z</time>
      </trkpt>
      <trkpt lat="43.63952" lon="7.02202">
        <ele>160.67749</ele>
        <time>2009-07-13T14:20:40Z</time>
      </trkpt>
      <trkpt lat="43.63954" lon="7.02215">
        <ele>160.196899</ele>
        <time>2009-07-13T14:20:48Z</time>
      </trkpt>
      <trkpt lat="43.63962" lon="7.0226">
        <ele>160.196899</ele>
        <time>2009-07-13T14:21:03Z</time>
      </trkpt>
      <trkpt lat="43.63966" lon="7.02276">
        <ele>160.196899</ele>
        <time>2009-07-13T14:21:08Z</time>
      </trkpt>
      <trkpt lat="43.63976" lon="7.02288">
        <ele>160.196899</ele>
        <time>2009-07-13T14:21:14Z</time>
      </trkpt>
      <trkpt lat="43.63983" lon="7.02318">
        <ele>160.67749</ele>
        <time>2009-07-13T14:21:24Z</time>
      </trkpt>
      <trkpt lat="43.63988" lon="7.02328">
        <ele>160.196899</ele>
        <time>2009-07-13T14:21:28Z</time>
      </trkpt>
      <trkpt lat="43.63981" lon="7.02351">
        <ele>160.196899</ele>
        <time>2009-07-13T14:21:33Z</time>
      </trkpt>
      <trkpt lat="43.6396" lon="7.02408">
        <ele>160.196899</ele>
        <time>2009-07-13T14:21:44Z</time>
      </trkpt>
      <trkpt lat="43.63958" lon="7.02412">
        <ele>159.716187</ele>
        <time>2009-07-13T14:21:45Z</time>
      </trkpt>
      <trkpt lat="43.63955" lon="7.02426">
        <ele>159.235474</ele>
        <time>2009-07-13T14:21:49Z</time>
      </trkpt>
      <trkpt lat="43.63944" lon="7.02472">
        <ele>158.27417</ele>
        <time>2009-07-13T14:22:01Z</time>
      </trkpt>
      <trkpt lat="43.63924" lon="7.02517">
        <ele>155.870972</ele>
        <time>2009-07-13T14:22:14Z</time>
      </trkpt>
      <trkpt lat="43.63903" lon="7.02555">
        <ele>153.948364</ele>
        <time>2009-07-13T14:22:26Z</time>
      </trkpt>
      <trkpt lat="43.63888" lon="7.02594">
        <ele>152.986938</ele>
        <time>2009-07-13T14:22:38Z</time>
      </trkpt>
      <trkpt lat="43.6387" lon="7.02634">
        <ele>153.948364</ele>
        <time>2009-07-13T14:22:48Z</time>
      </trkpt>
      <trkpt lat="43.63865" lon="7.02661">
        <ele>154.909546</ele>
        <time>2009-07-13T14:22:55Z</time>
      </trkpt>
      <trkpt lat="43.6386" lon="7.02693">
        <ele>153.467651</ele>
        <time>2009-07-13T14:23:04Z</time>
      </trkpt>
      <trkpt lat="43.63848" lon="7.02729">
        <ele>152.025757</ele>
        <time>2009-07-13T14:23:14Z</time>
      </trkpt>
      <trkpt lat="43.63841" lon="7.02747">
        <ele>151.544922</ele>
        <time>2009-07-13T14:23:19Z</time>
      </trkpt>
      <trkpt lat="43.63832" lon="7.02793">
        <ele>152.025757</ele>
        <time>2009-07-13T14:23:32Z</time>
      </trkpt>
      <trkpt lat="43.63806" lon="7.02831">
        <ele>151.064209</ele>
        <time>2009-07-13T14:23:43Z</time>
      </trkpt>
      <trkpt lat="43.63795" lon="7.02846">
        <ele>150.103027</ele>
        <time>2009-07-13T14:23:47Z</time>
      </trkpt>
      <trkpt lat="43.63786" lon="7.02858">
        <ele>150.103027</ele>
        <time>2009-07-13T14:23:52Z</time>
      </trkpt>
      <trkpt lat="43.63746" lon="7.02877">
        <ele>150.103027</ele>
        <time>2009-07-13T14:24:04Z</time>
      </trkpt>
      <trkpt lat="43.63709" lon="7.02884">
        <ele>148.661011</ele>
        <time>2009-07-13T14:24:15Z</time>
      </trkpt>
      <trkpt lat="43.63684" lon="7.02904">
        <ele>148.661011</ele>
        <time>2009-07-13T14:24:26Z</time>
      </trkpt>
      <trkpt lat="43.6367" lon="7.02928">
        <ele>147.699707</ele>
        <time>2009-07-13T14:24:37Z</time>
      </trkpt>
      <trkpt lat="43.63656" lon="7.02978">
        <ele>147.218994</ele>
        <time>2009-07-13T14:24:50Z</time>
      </trkpt>
      <trkpt lat="43.63658" lon="7.02994">
        <ele>146.738403</ele>
        <time>2009-07-13T14:24:55Z</time>
      </trkpt>
      <trkpt lat="43.63644" lon="7.03035">
        <ele>146.257813</ele>
        <time>2009-07-13T14:25:04Z</time>
      </trkpt>
      <trkpt lat="43.63653" lon="7.03052">
        <ele>145.7771</ele>
        <time>2009-07-13T14:25:10Z</time>
      </trkpt>
      <trkpt lat="43.63655" lon="7.03066">
        <ele>145.7771</ele>
        <time>2009-07-13T14:25:14Z</time>
      </trkpt>
      <trkpt lat="43.6366" lon="7.03093">
        <ele>145.296387</ele>
        <time>2009-07-13T14:25:23Z</time>
      </trkpt>
      <trkpt lat="43.63658" lon="7.03119">
        <ele>145.296387</ele>
        <time>2009-07-13T14:25:32Z</time>
      </trkpt>
      <trkpt lat="43.63651" lon="7.03143">
        <ele>145.296387</ele>
        <time>2009-07-13T14:25:38Z</time>
      </trkpt>
      <trkpt lat="43.63653" lon="7.03163">
        <ele>146.257813</ele>
        <time>2009-07-13T14:25:43Z</time>
      </trkpt>
      <trkpt lat="43.63656" lon="7.03176">
        <ele>146.257813</ele>
        <time>2009-07-13T14:25:47Z</time>
      </trkpt>
      <trkpt lat="43.63644" lon="7.03222">
        <ele>145.296387</ele>
        <time>2009-07-13T14:26:00Z</time>
      </trkpt>
      <trkpt lat="43.63645" lon="7.03229">
        <ele>145.296387</ele>
        <time>2009-07-13T14:26:03Z</time>
      </trkpt>
      <trkpt lat="43.63646" lon="7.03245">
        <ele>145.296387</ele>
        <time>2009-07-13T14:26:10Z</time>
      </trkpt>
      <trkpt lat="43.63625" lon="7.03292">
        <ele>144.815796</ele>
        <time>2009-07-13T14:26:21Z</time>
      </trkpt>
      <trkpt lat="43.63623" lon="7.03311">
        <ele>144.815796</ele>
        <time>2009-07-13T14:26:27Z</time>
      </trkpt>
      <trkpt lat="43.6362" lon="7.03324">
        <ele>144.815796</ele>
        <time>2009-07-13T14:26:31Z</time>
      </trkpt>
      <trkpt lat="43.63617" lon="7.03358">
        <ele>145.296387</ele>
        <time>2009-07-13T14:26:46Z</time>
      </trkpt>
      <trkpt lat="43.63614" lon="7.03455">
        <ele>143.85437</ele>
        <time>2009-07-13T14:27:04Z</time>
      </trkpt>
      <trkpt lat="43.63623" lon="7.03482">
        <ele>140.489868</ele>
        <time>2009-07-13T14:27:15Z</time>
      </trkpt>
      <trkpt lat="43.63623" lon="7.03484">
        <ele>140.489868</ele>
        <time>2009-07-13T14:27:16Z</time>
      </trkpt>
      <trkpt lat="43.63622" lon="7.03502">
        <ele>140.489868</ele>
        <time>2009-07-13T14:27:20Z</time>
      </trkpt>
      <trkpt lat="43.63631" lon="7.03535">
        <ele>140.970459</ele>
        <time>2009-07-13T14:27:26Z</time>
      </trkpt>
      <trkpt lat="43.63596" lon="7.03584">
        <ele>142.893066</ele>
        <time>2009-07-13T14:27:39Z</time>
      </trkpt>
      <trkpt lat="43.63574" lon="7.03594">
        <ele>143.373657</ele>
        <time>2009-07-13T14:27:46Z</time>
      </trkpt>
      <trkpt lat="43.63564" lon="7.03598">
        <ele>143.373657</ele>
        <time>2009-07-13T14:27:50Z</time>
      </trkpt>
      <trkpt lat="43.63547" lon="7.03617">
        <ele>140.970459</ele>
        <time>2009-07-13T14:27:59Z</time>
      </trkpt>
      <trkpt lat="43.63546" lon="7.0362">
        <ele>140.489868</ele>
        <time>2009-07-13T14:28:01Z</time>
      </trkpt>
      <trkpt lat="43.63544" lon="7.03622">
        <ele>139.528442</ele>
        <time>2009-07-13T14:28:03Z</time>
      </trkpt>
      <trkpt lat="43.63536" lon="7.03636">
        <ele>136.16394</ele>
        <time>2009-07-13T14:28:10Z</time>
      </trkpt>
      <trkpt lat="43.63532" lon="7.03645">
        <ele>135.683105</ele>
        <time>2009-07-13T14:28:15Z</time>
      </trkpt>
      <trkpt lat="43.63522" lon="7.0367">
        <ele>134.721924</ele>
        <time>2009-07-13T14:28:24Z</time>
      </trkpt>
      <trkpt lat="43.63527" lon="7.03731">
        <ele>134.241211</ele>
        <time>2009-07-13T14:28:44Z</time>
      </trkpt>
      <trkpt lat="43.63532" lon="7.03756">
        <ele>132.318604</ele>
        <time>2009-07-13T14:28:51Z</time>
      </trkpt>
      <trkpt lat="43.63512" lon="7.03778">
        <ele>134.241211</ele>
        <time>2009-07-13T14:29:01Z</time>
      </trkpt>
      <trkpt lat="43.63501" lon="7.03787">
        <ele>135.202515</ele>
        <time>2009-07-13T14:29:04Z</time>
      </trkpt>
      <trkpt lat="43.63469" lon="7.03814">
        <ele>132.318604</ele>
        <time>2009-07-13T14:29:15Z</time>
      </trkpt>
      <trkpt lat="43.6346" lon="7.03825">
        <ele>129.434692</ele>
        <time>2009-07-13T14:29:22Z</time>
      </trkpt>
      <trkpt lat="43.63457" lon="7.03825">
        <ele>128.473389</ele>
        <time>2009-07-13T14:29:24Z</time>
      </trkpt>
      <trkpt lat="43.63455" lon="7.03824">
        <ele>127.511963</ele>
        <time>2009-07-13T14:29:26Z</time>
      </trkpt>
      <trkpt lat="43.63427" lon="7.03808">
        <ele>124.628052</ele>
        <time>2009-07-13T14:29:38Z</time>
      </trkpt>
      <trkpt lat="43.63421" lon="7.03802">
        <ele>123.666748</ele>
        <time>2009-07-13T14:29:41Z</time>
      </trkpt>
      <trkpt lat="43.63396" lon="7.03798">
        <ele>122.224731</ele>
        <time>2009-07-13T14:29:53Z</time>
      </trkpt>
      <trkpt lat="43.63389" lon="7.03797">
        <ele>122.224731</ele>
        <time>2009-07-13T14:29:56Z</time>
      </trkpt>
      <trkpt lat="43.63367" lon="7.03795">
        <ele>123.666748</ele>
        <time>2009-07-13T14:30:08Z</time>
      </trkpt>
      <trkpt lat="43.63334" lon="7.03817">
        <ele>120.782837</ele>
        <time>2009-07-13T14:30:30Z</time>
      </trkpt>
      <trkpt lat="43.63316" lon="7.03831">
        <ele>119.821411</ele>
        <time>2009-07-13T14:30:42Z</time>
      </trkpt>
      <trkpt lat="43.63286" lon="7.03853">
        <ele>119.34082</ele>
        <time>2009-07-13T14:30:54Z</time>
      </trkpt>
      <trkpt lat="43.63271" lon="7.03863">
        <ele>119.821411</ele>
        <time>2009-07-13T14:31:04Z</time>
      </trkpt>
      <trkpt lat="43.63252" lon="7.03877">
        <ele>118.860107</ele>
        <time>2009-07-13T14:31:13Z</time>
      </trkpt>
      <trkpt lat="43.63245" lon="7.03908">
        <ele>117.898804</ele>
        <time>2009-07-13T14:31:27Z</time>
      </trkpt>
      <trkpt lat="43.63243" lon="7.03912">
        <ele>117.898804</ele>
        <time>2009-07-13T14:31:29Z</time>
      </trkpt>
      <trkpt lat="43.63242" lon="7.03928">
        <ele>118.379395</ele>
        <time>2009-07-13T14:31:34Z</time>
      </trkpt>
      <trkpt lat="43.63234" lon="7.03959">
        <ele>117.898804</ele>
        <time>2009-07-13T14:31:44Z</time>
      </trkpt>
      <trkpt lat="43.63233" lon="7.03993">
        <ele>117.898804</ele>
        <time>2009-07-13T14:31:57Z</time>
      </trkpt>
      <trkpt lat="43.63231" lon="7.04003">
        <ele>120.782837</ele>
        <time>2009-07-13T14:32:02Z</time>
      </trkpt>
      <trkpt lat="43.63234" lon="7.04027">
        <ele>124.147339</ele>
        <time>2009-07-13T14:32:16Z</time>
      </trkpt>
      <trkpt lat="43.63244" lon="7.0405">
        <ele>120.782837</ele>
        <time>2009-07-13T14:32:29Z</time>
      </trkpt>
      <trkpt lat="43.63249" lon="7.04058">
        <ele>117.418213</ele>
        <time>2009-07-13T14:32:39Z</time>
      </trkpt>
      <trkpt lat="43.63255" lon="7.04063">
        <ele>115.495605</ele>
        <time>2009-07-13T14:32:46Z</time>
      </trkpt>
      <trkpt lat="43.63281" lon="7.04078">
        <ele>114.053589</ele>
        <time>2009-07-13T14:32:56Z</time>
      </trkpt>
      <trkpt lat="43.63299" lon="7.04093">
        <ele>113.572998</ele>
        <time>2009-07-13T14:33:05Z</time>
      </trkpt>
      <trkpt lat="43.63307" lon="7.04112">
        <ele>113.572998</ele>
        <time>2009-07-13T14:33:15Z</time>
      </trkpt>
      <trkpt lat="43.63295" lon="7.04142">
        <ele>112.611572</ele>
        <time>2009-07-13T14:33:24Z</time>
      </trkpt>
      <trkpt lat="43.63292" lon="7.04189">
        <ele>112.130981</ele>
        <time>2009-07-13T14:33:37Z</time>
      </trkpt>
      <trkpt lat="43.63297" lon="7.04203">
        <ele>111.650269</ele>
        <time>2009-07-13T14:33:42Z</time>
      </trkpt>
      <trkpt lat="43.63304" lon="7.0422">
        <ele>111.650269</ele>
        <time>2009-07-13T14:33:47Z</time>
      </trkpt>
      <trkpt lat="43.63307" lon="7.04232">
        <ele>111.169556</ele>
        <time>2009-07-13T14:33:52Z</time>
      </trkpt>
      <trkpt lat="43.63317" lon="7.04242">
        <ele>111.169556</ele>
        <time>2009-07-13T14:33:57Z</time>
      </trkpt>
      <trkpt lat="43.63319" lon="7.04245">
        <ele>111.169556</ele>
        <time>2009-07-13T14:33:59Z</time>
      </trkpt>
      <trkpt lat="43.63333" lon="7.04248">
        <ele>111.169556</ele>
        <time>2009-07-13T14:34:05Z</time>
      </trkpt>
      <trkpt lat="43.6334" lon="7.04254">
        <ele>111.169556</ele>
        <time>2009-07-13T14:34:09Z</time>
      </trkpt>
      <trkpt lat="43.63352" lon="7.04271">
        <ele>111.169556</ele>
        <time>2009-07-13T14:34:21Z</time>
      </trkpt>
      <trkpt lat="43.63352" lon="7.04273">
        <ele>111.650269</ele>
        <time>2009-07-13T14:34:22Z</time>
      </trkpt>
      <trkpt lat="43.63352" lon="7.04278">
        <ele>112.611572</ele>
        <time>2009-07-13T14:34:24Z</time>
      </trkpt>
      <trkpt lat="43.63355" lon="7.04289">
        <ele>113.092285</ele>
        <time>2009-07-13T14:34:26Z</time>
      </trkpt>
      <trkpt lat="43.63365" lon="7.04312">
        <ele>115.495605</ele>
        <time>2009-07-13T14:34:36Z</time>
      </trkpt>
      <trkpt lat="43.63372" lon="7.04323">
        <ele>115.495605</ele>
        <time>2009-07-13T14:34:42Z</time>
      </trkpt>
      <trkpt lat="43.63364" lon="7.0434">
        <ele>115.495605</ele>
        <time>2009-07-13T14:34:48Z</time>
      </trkpt>
      <trkpt lat="43.63366" lon="7.04346">
        <ele>115.976196</ele>
        <time>2009-07-13T14:34:50Z</time>
      </trkpt>
      <trkpt lat="43.63378" lon="7.04358">
        <ele>115.014893</ele>
        <time>2009-07-13T14:34:57Z</time>
      </trkpt>
      <trkpt lat="43.6339" lon="7.04373">
        <ele>113.092285</ele>
        <time>2009-07-13T14:35:04Z</time>
      </trkpt>
      <trkpt lat="43.63395" lon="7.04391">
        <ele>114.53418</ele>
        <time>2009-07-13T14:35:11Z</time>
      </trkpt>
      <trkpt lat="43.63399" lon="7.04402">
        <ele>115.495605</ele>
        <time>2009-07-13T14:35:16Z</time>
      </trkpt>
      <trkpt lat="43.63399" lon="7.04407">
        <ele>115.976196</ele>
        <time>2009-07-13T14:35:18Z</time>
      </trkpt>
      <trkpt lat="43.63403" lon="7.04422">
        <ele>116.9375</ele>
        <time>2009-07-13T14:35:23Z</time>
      </trkpt>
      <trkpt lat="43.63405" lon="7.0443">
        <ele>116.9375</ele>
        <time>2009-07-13T14:35:27Z</time>
      </trkpt>
      <trkpt lat="43.63411" lon="7.04448">
        <ele>118.379395</ele>
        <time>2009-07-13T14:35:33Z</time>
      </trkpt>
      <trkpt lat="43.63412" lon="7.04457">
        <ele>119.821411</ele>
        <time>2009-07-13T14:35:36Z</time>
      </trkpt>
      <trkpt lat="43.63409" lon="7.04487">
        <ele>120.782837</ele>
        <time>2009-07-13T14:35:44Z</time>
      </trkpt>
      <trkpt lat="43.63418" lon="7.04505">
        <ele>120.302124</ele>
        <time>2009-07-13T14:35:50Z</time>
      </trkpt>
      <trkpt lat="43.63435" lon="7.04535">
        <ele>116.456787</ele>
        <time>2009-07-13T14:36:01Z</time>
      </trkpt>
      <trkpt lat="43.63439" lon="7.04563">
        <ele>114.053589</ele>
        <time>2009-07-13T14:36:11Z</time>
      </trkpt>
      <trkpt lat="43.6344" lon="7.04584">
        <ele>112.130981</ele>
        <time>2009-07-13T14:36:19Z</time>
      </trkpt>
      <trkpt lat="43.6344" lon="7.04593">
        <ele>111.169556</ele>
        <time>2009-07-13T14:36:22Z</time>
      </trkpt>
      <trkpt lat="43.63439" lon="7.04605">
        <ele>110.208252</ele>
        <time>2009-07-13T14:36:26Z</time>
      </trkpt>
      <trkpt lat="43.63447" lon="7.04618">
        <ele>106.843628</ele>
        <time>2009-07-13T14:36:34Z</time>
      </trkpt>
      <trkpt lat="43.63454" lon="7.04618">
        <ele>104.921021</ele>
        <time>2009-07-13T14:36:39Z</time>
      </trkpt>
      <trkpt lat="43.63458" lon="7.04617">
        <ele>103.479004</ele>
        <time>2009-07-13T14:36:42Z</time>
      </trkpt>
      <trkpt lat="43.63461" lon="7.04618">
        <ele>102.5177</ele>
        <time>2009-07-13T14:36:46Z</time>
      </trkpt>
      <trkpt lat="43.63466" lon="7.04631">
        <ele>102.037109</ele>
        <time>2009-07-13T14:36:52Z</time>
      </trkpt>
      <trkpt lat="43.63468" lon="7.04673">
        <ele>102.5177</ele>
        <time>2009-07-13T14:37:02Z</time>
      </trkpt>
      <trkpt lat="43.63465" lon="7.04689">
        <ele>102.037109</ele>
        <time>2009-07-13T14:37:09Z</time>
      </trkpt>
      <trkpt lat="43.63461" lon="7.04697">
        <ele>102.037109</ele>
        <time>2009-07-13T14:37:12Z</time>
      </trkpt>
      <trkpt lat="43.63465" lon="7.04717">
        <ele>99.153076</ele>
        <time>2009-07-13T14:37:22Z</time>
      </trkpt>
      <trkpt lat="43.63475" lon="7.04757">
        <ele>98.672485</ele>
        <time>2009-07-13T14:37:33Z</time>
      </trkpt>
      <trkpt lat="43.63473" lon="7.0477">
        <ele>97.711182</ele>
        <time>2009-07-13T14:37:39Z</time>
      </trkpt>
      <trkpt lat="43.63476" lon="7.04778">
        <ele>97.711182</ele>
        <time>2009-07-13T14:37:42Z</time>
      </trkpt>
      <trkpt lat="43.63476" lon="7.04801">
        <ele>97.711182</ele>
        <time>2009-07-13T14:37:50Z</time>
      </trkpt>
      <trkpt lat="43.63473" lon="7.04811">
        <ele>97.711182</ele>
        <time>2009-07-13T14:37:53Z</time>
      </trkpt>
      <trkpt lat="43.63473" lon="7.04819">
        <ele>97.711182</ele>
        <time>2009-07-13T14:37:55Z</time>
      </trkpt>
      <trkpt lat="43.6348" lon="7.04852">
        <ele>98.191895</ele>
        <time>2009-07-13T14:38:05Z</time>
      </trkpt>
      <trkpt lat="43.63474" lon="7.04892">
        <ele>99.633789</ele>
        <time>2009-07-13T14:38:13Z</time>
      </trkpt>
      <trkpt lat="43.63465" lon="7.04909">
        <ele>99.153076</ele>
        <time>2009-07-13T14:38:15Z</time>
      </trkpt>
      <trkpt lat="43.63475" lon="7.04931">
        <ele>97.230469</ele>
        <time>2009-07-13T14:38:23Z</time>
      </trkpt>
      <trkpt lat="43.63475" lon="7.04934">
        <ele>97.230469</ele>
        <time>2009-07-13T14:38:25Z</time>
      </trkpt>
      <trkpt lat="43.63482" lon="7.0495">
        <ele>96.269287</ele>
        <time>2009-07-13T14:38:36Z</time>
      </trkpt>
      <trkpt lat="43.63492" lon="7.04975">
        <ele>95.788452</ele>
        <time>2009-07-13T14:38:46Z</time>
      </trkpt>
      <trkpt lat="43.63491" lon="7.05">
        <ele>97.230469</ele>
        <time>2009-07-13T14:38:52Z</time>
      </trkpt>
      <trkpt lat="43.63496" lon="7.05044">
        <ele>97.230469</ele>
        <time>2009-07-13T14:39:01Z</time>
      </trkpt>
      <trkpt lat="43.63493" lon="7.05064">
        <ele>96.269287</ele>
        <time>2009-07-13T14:39:07Z</time>
      </trkpt>
      <trkpt lat="43.63489" lon="7.0508">
        <ele>95.788452</ele>
        <time>2009-07-13T14:39:13Z</time>
      </trkpt>
      <trkpt lat="43.63483" lon="7.05108">
        <ele>95.788452</ele>
        <time>2009-07-13T14:39:24Z</time>
      </trkpt>
      <trkpt lat="43.63478" lon="7.05123">
        <ele>95.307739</ele>
        <time>2009-07-13T14:39:28Z</time>
      </trkpt>
      <trkpt lat="43.6347" lon="7.05166">
        <ele>95.307739</ele>
        <time>2009-07-13T14:39:38Z</time>
      </trkpt>
      <trkpt lat="43.63454" lon="7.05176">
        <ele>96.269287</ele>
        <time>2009-07-13T14:39:43Z</time>
      </trkpt>
      <trkpt lat="43.63448" lon="7.05192">
        <ele>95.788452</ele>
        <time>2009-07-13T14:39:49Z</time>
      </trkpt>
      <trkpt lat="43.63442" lon="7.05207">
        <ele>95.788452</ele>
        <time>2009-07-13T14:39:55Z</time>
      </trkpt>
      <trkpt lat="43.63423" lon="7.05245">
        <ele>94.827148</ele>
        <time>2009-07-13T14:40:08Z</time>
      </trkpt>
      <trkpt lat="43.63402" lon="7.05279">
        <ele>94.346558</ele>
        <time>2009-07-13T14:40:19Z</time>
      </trkpt>
      <trkpt lat="43.63381" lon="7.05316">
        <ele>93.865845</ele>
        <time>2009-07-13T14:40:33Z</time>
      </trkpt>
      <trkpt lat="43.63385" lon="7.05365">
        <ele>93.865845</ele>
        <time>2009-07-13T14:40:44Z</time>
      </trkpt>
      <trkpt lat="43.6338" lon="7.0538">
        <ele>92.904541</ele>
        <time>2009-07-13T14:40:50Z</time>
      </trkpt>
      <trkpt lat="43.63378" lon="7.05387">
        <ele>92.42395</ele>
        <time>2009-07-13T14:40:54Z</time>
      </trkpt>
      <trkpt lat="43.63364" lon="7.0541">
        <ele>92.42395</ele>
        <time>2009-07-13T14:41:04Z</time>
      </trkpt>
      <trkpt lat="43.63342" lon="7.05442">
        <ele>92.42395</ele>
        <time>2009-07-13T14:41:17Z</time>
      </trkpt>
      <trkpt lat="43.63323" lon="7.05455">
        <ele>92.42395</ele>
        <time>2009-07-13T14:41:31Z</time>
      </trkpt>
      <trkpt lat="43.63321" lon="7.05457">
        <ele>91.943237</ele>
        <time>2009-07-13T14:41:32Z</time>
      </trkpt>
      <trkpt lat="43.6331" lon="7.05464">
        <ele>91.943237</ele>
        <time>2009-07-13T14:41:36Z</time>
      </trkpt>
      <trkpt lat="43.63305" lon="7.0547">
        <ele>91.943237</ele>
        <time>2009-07-13T14:41:39Z</time>
      </trkpt>
      <trkpt lat="43.63276" lon="7.05476">
        <ele>91.943237</ele>
        <time>2009-07-13T14:41:46Z</time>
      </trkpt>
      <trkpt lat="43.63259" lon="7.05496">
        <ele>90.02063</ele>
        <time>2009-07-13T14:41:57Z</time>
      </trkpt>
      <trkpt lat="43.63247" lon="7.05505">
        <ele>90.02063</ele>
        <time>2009-07-13T14:42:01Z</time>
      </trkpt>
      <trkpt lat="43.63237" lon="7.05518">
        <ele>89.539917</ele>
        <time>2009-07-13T14:42:06Z</time>
      </trkpt>
      <trkpt lat="43.63223" lon="7.05543">
        <ele>89.059326</ele>
        <time>2009-07-13T14:42:16Z</time>
      </trkpt>
      <trkpt lat="43.63212" lon="7.05578">
        <ele>88.578735</ele>
        <time>2009-07-13T14:42:26Z</time>
      </trkpt>
      <trkpt lat="43.63214" lon="7.05611">
        <ele>88.578735</ele>
        <time>2009-07-13T14:42:37Z</time>
      </trkpt>
      <trkpt lat="43.63211" lon="7.05631">
        <ele>88.578735</ele>
        <time>2009-07-13T14:42:43Z</time>
      </trkpt>
      <trkpt lat="43.63203" lon="7.0566">
        <ele>88.578735</ele>
        <time>2009-07-13T14:42:53Z</time>
      </trkpt>
      <trkpt lat="43.63201" lon="7.05684">
        <ele>89.059326</ele>
        <time>2009-07-13T14:43:05Z</time>
      </trkpt>
      <trkpt lat="43.63224" lon="7.05698">
        <ele>88.578735</ele>
        <time>2009-07-13T14:43:17Z</time>
      </trkpt>
      <trkpt lat="43.63229" lon="7.05706">
        <ele>88.578735</ele>
        <time>2009-07-13T14:43:22Z</time>
      </trkpt>
      <trkpt lat="43.63238" lon="7.05739">
        <ele>88.578735</ele>
        <time>2009-07-13T14:43:33Z</time>
      </trkpt>
      <trkpt lat="43.63241" lon="7.05758">
        <ele>88.578735</ele>
        <time>2009-07-13T14:43:39Z</time>
      </trkpt>
      <trkpt lat="43.63246" lon="7.05777">
        <ele>88.578735</ele>
        <time>2009-07-13T14:43:44Z</time>
      </trkpt>
      <trkpt lat="43.63255" lon="7.0579">
        <ele>88.098022</ele>
        <time>2009-07-13T14:43:47Z</time>
      </trkpt>
      <trkpt lat="43.63223" lon="7.05817">
        <ele>87.136597</ele>
        <time>2009-07-13T14:43:57Z</time>
      </trkpt>
      <trkpt lat="43.6322" lon="7.05827">
        <ele>86.175293</ele>
        <time>2009-07-13T14:44:02Z</time>
      </trkpt>
      <trkpt lat="43.63192" lon="7.05841">
        <ele>85.213989</ele>
        <time>2009-07-13T14:44:11Z</time>
      </trkpt>
      <trkpt lat="43.63184" lon="7.05843">
        <ele>84.733398</ele>
        <time>2009-07-13T14:44:16Z</time>
      </trkpt>
      <trkpt lat="43.63172" lon="7.05846">
        <ele>84.252686</ele>
        <time>2009-07-13T14:44:21Z</time>
      </trkpt>
      <trkpt lat="43.63147" lon="7.05858">
        <ele>85.213989</ele>
        <time>2009-07-13T14:44:35Z</time>
      </trkpt>
      <trkpt lat="43.63128" lon="7.05869">
        <ele>83.771973</ele>
        <time>2009-07-13T14:44:47Z</time>
      </trkpt>
      <trkpt lat="43.63106" lon="7.05898">
        <ele>83.771973</ele>
        <time>2009-07-13T14:45:00Z</time>
      </trkpt>
      <trkpt lat="43.63101" lon="7.05926">
        <ele>83.291382</ele>
        <time>2009-07-13T14:45:11Z</time>
      </trkpt>
      <trkpt lat="43.631" lon="7.05928">
        <ele>82.810791</ele>
        <time>2009-07-13T14:45:12Z</time>
      </trkpt>
      <trkpt lat="43.63097" lon="7.05938">
        <ele>84.252686</ele>
        <time>2009-07-13T14:45:16Z</time>
      </trkpt>
      <trkpt lat="43.63084" lon="7.05981">
        <ele>82.810791</ele>
        <time>2009-07-13T14:45:30Z</time>
      </trkpt>
      <trkpt lat="43.63079" lon="7.06024">
        <ele>81.849365</ele>
        <time>2009-07-13T14:45:43Z</time>
      </trkpt>
      <trkpt lat="43.63098" lon="7.06076">
        <ele>81.368774</ele>
        <time>2009-07-13T14:45:57Z</time>
      </trkpt>
      <trkpt lat="43.63105" lon="7.06098">
        <ele>81.849365</ele>
        <time>2009-07-13T14:46:05Z</time>
      </trkpt>
      <trkpt lat="43.63107" lon="7.06108">
        <ele>81.849365</ele>
        <time>2009-07-13T14:46:08Z</time>
      </trkpt>
      <trkpt lat="43.63114" lon="7.06115">
        <ele>82.810791</ele>
        <time>2009-07-13T14:46:13Z</time>
      </trkpt>
      <trkpt lat="43.63142" lon="7.06129">
        <ele>80.407471</ele>
        <time>2009-07-13T14:46:26Z</time>
      </trkpt>
      <trkpt lat="43.63155" lon="7.06138">
        <ele>79.926636</ele>
        <time>2009-07-13T14:46:35Z</time>
      </trkpt>
      <trkpt lat="43.63159" lon="7.06155">
        <ele>79.926636</ele>
        <time>2009-07-13T14:46:41Z</time>
      </trkpt>
      <trkpt lat="43.6317" lon="7.06183">
        <ele>79.446045</ele>
        <time>2009-07-13T14:46:57Z</time>
      </trkpt>
      <trkpt lat="43.63171" lon="7.06186">
        <ele>79.446045</ele>
        <time>2009-07-13T14:46:58Z</time>
      </trkpt>
      <trkpt lat="43.63183" lon="7.06232">
        <ele>79.926636</ele>
        <time>2009-07-13T14:47:10Z</time>
      </trkpt>
      <trkpt lat="43.63184" lon="7.06245">
        <ele>79.926636</ele>
        <time>2009-07-13T14:47:13Z</time>
      </trkpt>
      <trkpt lat="43.63187" lon="7.06296">
        <ele>79.446045</ele>
        <time>2009-07-13T14:47:27Z</time>
      </trkpt>
      <trkpt lat="43.6319" lon="7.06315">
        <ele>79.926636</ele>
        <time>2009-07-13T14:47:31Z</time>
      </trkpt>
      <trkpt lat="43.63157" lon="7.06324">
        <ele>80.407471</ele>
        <time>2009-07-13T14:47:40Z</time>
      </trkpt>
      <trkpt lat="43.63142" lon="7.0632">
        <ele>80.888184</ele>
        <time>2009-07-13T14:47:45Z</time>
      </trkpt>
      <trkpt lat="43.63108" lon="7.06303">
        <ele>80.888184</ele>
        <time>2009-07-13T14:47:57Z</time>
      </trkpt>
      <trkpt lat="43.63085" lon="7.06293">
        <ele>80.407471</ele>
        <time>2009-07-13T14:48:07Z</time>
      </trkpt>
      <trkpt lat="43.63082" lon="7.06292">
        <ele>79.926636</ele>
        <time>2009-07-13T14:48:09Z</time>
      </trkpt>
      <trkpt lat="43.63074" lon="7.06296">
        <ele>79.926636</ele>
        <time>2009-07-13T14:48:13Z</time>
      </trkpt>
      <trkpt lat="43.63063" lon="7.06292">
        <ele>78.004028</ele>
        <time>2009-07-13T14:48:18Z</time>
      </trkpt>
      <trkpt lat="43.63057" lon="7.06288">
        <ele>78.965454</ele>
        <time>2009-07-13T14:48:24Z</time>
      </trkpt>
      <trkpt lat="43.63046" lon="7.06297">
        <ele>78.004028</ele>
        <time>2009-07-13T14:48:36Z</time>
      </trkpt>
      <trkpt lat="43.63007" lon="7.06323">
        <ele>76.562134</ele>
        <time>2009-07-13T14:48:52Z</time>
      </trkpt>
      <trkpt lat="43.62979" lon="7.06346">
        <ele>76.562134</ele>
        <time>2009-07-13T14:49:04Z</time>
      </trkpt>
      <trkpt lat="43.62955" lon="7.06369">
        <ele>75.60083</ele>
        <time>2009-07-13T14:49:15Z</time>
      </trkpt>
      <trkpt lat="43.62942" lon="7.06378">
        <ele>75.60083</ele>
        <time>2009-07-13T14:49:20Z</time>
      </trkpt>
      <trkpt lat="43.62906" lon="7.06403">
        <ele>75.60083</ele>
        <time>2009-07-13T14:49:30Z</time>
      </trkpt>
      <trkpt lat="43.62883" lon="7.06419">
        <ele>75.60083</ele>
        <time>2009-07-13T14:49:40Z</time>
      </trkpt>
      <trkpt lat="43.6287" lon="7.06434">
        <ele>75.60083</ele>
        <time>2009-07-13T14:49:45Z</time>
      </trkpt>
      <trkpt lat="43.62839" lon="7.0647">
        <ele>75.60083</ele>
        <time>2009-07-13T14:49:58Z</time>
      </trkpt>
      <trkpt lat="43.62834" lon="7.0648">
        <ele>75.120239</ele>
        <time>2009-07-13T14:50:02Z</time>
      </trkpt>
      <trkpt lat="43.6282" lon="7.06516">
        <ele>75.120239</ele>
        <time>2009-07-13T14:50:14Z</time>
      </trkpt>
      <trkpt lat="43.62809" lon="7.06539">
        <ele>75.120239</ele>
        <time>2009-07-13T14:50:21Z</time>
      </trkpt>
      <trkpt lat="43.62807" lon="7.06554">
        <ele>75.120239</ele>
        <time>2009-07-13T14:50:25Z</time>
      </trkpt>
      <trkpt lat="43.62796" lon="7.0658">
        <ele>75.120239</ele>
        <time>2009-07-13T14:50:32Z</time>
      </trkpt>
      <trkpt lat="43.62783" lon="7.06594">
        <ele>74.639526</ele>
        <time>2009-07-13T14:50:37Z</time>
      </trkpt>
      <trkpt lat="43.62753" lon="7.06581">
        <ele>74.158813</ele>
        <time>2009-07-13T14:50:48Z</time>
      </trkpt>
      <trkpt lat="43.62739" lon="7.06569">
        <ele>75.60083</ele>
        <time>2009-07-13T14:50:53Z</time>
      </trkpt>
      <trkpt lat="43.62718" lon="7.06565">
        <ele>74.639526</ele>
        <time>2009-07-13T14:51:03Z</time>
      </trkpt>
      <trkpt lat="43.62696" lon="7.06562">
        <ele>73.197632</ele>
        <time>2009-07-13T14:51:14Z</time>
      </trkpt>
      <trkpt lat="43.62695" lon="7.06562">
        <ele>73.197632</ele>
        <time>2009-07-13T14:51:15Z</time>
      </trkpt>
      <trkpt lat="43.62655" lon="7.06556">
        <ele>73.678223</ele>
        <time>2009-07-13T14:51:31Z</time>
      </trkpt>
      <trkpt lat="43.62638" lon="7.06545">
        <ele>73.678223</ele>
        <time>2009-07-13T14:51:37Z</time>
      </trkpt>
      <trkpt lat="43.62634" lon="7.06542">
        <ele>74.158813</ele>
        <time>2009-07-13T14:51:40Z</time>
      </trkpt>
      <trkpt lat="43.62633" lon="7.0655">
        <ele>74.639526</ele>
        <time>2009-07-13T14:51:44Z</time>
      </trkpt>
      <trkpt lat="43.62631" lon="7.06569">
        <ele>75.120239</ele>
        <time>2009-07-13T14:51:51Z</time>
      </trkpt>
      <trkpt lat="43.62633" lon="7.06576">
        <ele>74.639526</ele>
        <time>2009-07-13T14:51:55Z</time>
      </trkpt>
      <trkpt lat="43.62641" lon="7.06592">
        <ele>74.158813</ele>
        <time>2009-07-13T14:52:01Z</time>
      </trkpt>
      <trkpt lat="43.62647" lon="7.0663">
        <ele>74.158813</ele>
        <time>2009-07-13T14:52:14Z</time>
      </trkpt>
      <trkpt lat="43.62647" lon="7.06632">
        <ele>73.678223</ele>
        <time>2009-07-13T14:52:15Z</time>
      </trkpt>
      <trkpt lat="43.62649" lon="7.06691">
        <ele>73.678223</ele>
        <time>2009-07-13T14:52:28Z</time>
      </trkpt>
      <trkpt lat="43.62647" lon="7.06711">
        <ele>76.081421</ele>
        <time>2009-07-13T14:52:35Z</time>
      </trkpt>
      <trkpt lat="43.62644" lon="7.06717">
        <ele>76.562134</ele>
        <time>2009-07-13T14:52:39Z</time>
      </trkpt>
      <trkpt lat="43.62632" lon="7.06724">
        <ele>77.042847</ele>
        <time>2009-07-13T14:52:46Z</time>
      </trkpt>
      <trkpt lat="43.62616" lon="7.06737">
        <ele>74.158813</ele>
        <time>2009-07-13T14:52:53Z</time>
      </trkpt>
      <trkpt lat="43.62607" lon="7.06741">
        <ele>72.716919</ele>
        <time>2009-07-13T14:52:57Z</time>
      </trkpt>
      <trkpt lat="43.62576" lon="7.06762">
        <ele>72.716919</ele>
        <time>2009-07-13T14:53:07Z</time>
      </trkpt>
      <trkpt lat="43.62565" lon="7.06771">
        <ele>72.236206</ele>
        <time>2009-07-13T14:53:11Z</time>
      </trkpt>
      <trkpt lat="43.62556" lon="7.06786">
        <ele>72.716919</ele>
        <time>2009-07-13T14:53:16Z</time>
      </trkpt>
      <trkpt lat="43.62542" lon="7.06822">
        <ele>72.236206</ele>
        <time>2009-07-13T14:53:27Z</time>
      </trkpt>
      <trkpt lat="43.62541" lon="7.06827">
        <ele>72.236206</ele>
        <time>2009-07-13T14:53:30Z</time>
      </trkpt>
      <trkpt lat="43.62542" lon="7.06835">
        <ele>72.236206</ele>
        <time>2009-07-13T14:53:34Z</time>
      </trkpt>
      <trkpt lat="43.62553" lon="7.06845">
        <ele>71.755493</ele>
        <time>2009-07-13T14:53:45Z</time>
      </trkpt>
      <trkpt lat="43.62552" lon="7.06851">
        <ele>72.236206</ele>
        <time>2009-07-13T14:53:48Z</time>
      </trkpt>
      <trkpt lat="43.62556" lon="7.06868">
        <ele>71.274902</ele>
        <time>2009-07-13T14:53:53Z</time>
      </trkpt>
      <trkpt lat="43.62562" lon="7.06884">
        <ele>72.236206</ele>
        <time>2009-07-13T14:53:59Z</time>
      </trkpt>
      <trkpt lat="43.6257" lon="7.06917">
        <ele>71.755493</ele>
        <time>2009-07-13T14:54:13Z</time>
      </trkpt>
      <trkpt lat="43.62572" lon="7.0693">
        <ele>72.236206</ele>
        <time>2009-07-13T14:54:17Z</time>
      </trkpt>
      <trkpt lat="43.62594" lon="7.06984">
        <ele>72.716919</ele>
        <time>2009-07-13T14:54:31Z</time>
      </trkpt>
      <trkpt lat="43.62603" lon="7.07011">
        <ele>72.716919</ele>
        <time>2009-07-13T14:54:42Z</time>
      </trkpt>
      <trkpt lat="43.62626" lon="7.07039">
        <ele>72.236206</ele>
        <time>2009-07-13T14:54:54Z</time>
      </trkpt>
      <trkpt lat="43.62636" lon="7.07066">
        <ele>71.755493</ele>
        <time>2009-07-13T14:55:05Z</time>
      </trkpt>
      <trkpt lat="43.62648" lon="7.07126">
        <ele>72.716919</ele>
        <time>2009-07-13T14:55:19Z</time>
      </trkpt>
      <trkpt lat="43.62645" lon="7.07137">
        <ele>72.236206</ele>
        <time>2009-07-13T14:55:23Z</time>
      </trkpt>
      <trkpt lat="43.62645" lon="7.07143">
        <ele>72.236206</ele>
        <time>2009-07-13T14:55:25Z</time>
      </trkpt>
      <trkpt lat="43.62643" lon="7.07189">
        <ele>72.236206</ele>
        <time>2009-07-13T14:55:38Z</time>
      </trkpt>
      <trkpt lat="43.62646" lon="7.07197">
        <ele>72.716919</ele>
        <time>2009-07-13T14:55:39Z</time>
      </trkpt>
      <trkpt lat="43.62629" lon="7.07238">
        <ele>72.236206</ele>
        <time>2009-07-13T14:55:51Z</time>
      </trkpt>
      <trkpt lat="43.62612" lon="7.07273">
        <ele>71.755493</ele>
        <time>2009-07-13T14:56:05Z</time>
      </trkpt>
      <trkpt lat="43.62582" lon="7.07304">
        <ele>71.755493</ele>
        <time>2009-07-13T14:56:18Z</time>
      </trkpt>
      <trkpt lat="43.62558" lon="7.07334">
        <ele>72.236206</ele>
        <time>2009-07-13T14:56:31Z</time>
      </trkpt>
      <trkpt lat="43.62555" lon="7.07336">
        <ele>71.755493</ele>
        <time>2009-07-13T14:56:32Z</time>
      </trkpt>
      <trkpt lat="43.62554" lon="7.07352">
        <ele>72.236206</ele>
        <time>2009-07-13T14:56:38Z</time>
      </trkpt>
      <trkpt lat="43.62544" lon="7.07395">
        <ele>71.755493</ele>
        <time>2009-07-13T14:56:53Z</time>
      </trkpt>
      <trkpt lat="43.6253" lon="7.07424">
        <ele>70.794189</ele>
        <time>2009-07-13T14:57:05Z</time>
      </trkpt>
      <trkpt lat="43.62524" lon="7.0743">
        <ele>70.794189</ele>
        <time>2009-07-13T14:57:08Z</time>
      </trkpt>
      <trkpt lat="43.62514" lon="7.0746">
        <ele>71.274902</ele>
        <time>2009-07-13T14:57:17Z</time>
      </trkpt>
      <trkpt lat="43.62494" lon="7.07494">
        <ele>70.794189</ele>
        <time>2009-07-13T14:57:29Z</time>
      </trkpt>
      <trkpt lat="43.62477" lon="7.07532">
        <ele>70.794189</ele>
        <time>2009-07-13T14:57:41Z</time>
      </trkpt>
      <trkpt lat="43.62472" lon="7.07568">
        <ele>70.794189</ele>
        <time>2009-07-13T14:57:53Z</time>
      </trkpt>
      <trkpt lat="43.62472" lon="7.07577">
        <ele>70.794189</ele>
        <time>2009-07-13T14:57:56Z</time>
      </trkpt>
      <trkpt lat="43.62465" lon="7.07628">
        <ele>71.274902</ele>
        <time>2009-07-13T14:58:11Z</time>
      </trkpt>
      <trkpt lat="43.6246" lon="7.07673">
        <ele>70.794189</ele>
        <time>2009-07-13T14:58:25Z</time>
      </trkpt>
      <trkpt lat="43.62443" lon="7.07705">
        <ele>71.274902</ele>
        <time>2009-07-13T14:58:35Z</time>
      </trkpt>
      <trkpt lat="43.62431" lon="7.07738">
        <ele>71.274902</ele>
        <time>2009-07-13T14:58:46Z</time>
      </trkpt>
      <trkpt lat="43.6241" lon="7.07766">
        <ele>71.755493</ele>
        <time>2009-07-13T14:58:54Z</time>
      </trkpt>
      <trkpt lat="43.624" lon="7.07796">
        <ele>71.274902</ele>
        <time>2009-07-13T14:59:04Z</time>
      </trkpt>
      <trkpt lat="43.624" lon="7.07806">
        <ele>71.274902</ele>
        <time>2009-07-13T14:59:07Z</time>
      </trkpt>
      <trkpt lat="43.62396" lon="7.07829">
        <ele>71.755493</ele>
        <time>2009-07-13T14:59:15Z</time>
      </trkpt>
      <trkpt lat="43.62393" lon="7.07838">
        <ele>71.755493</ele>
        <time>2009-07-13T14:59:17Z</time>
      </trkpt>
      <trkpt lat="43.62383" lon="7.07859">
        <ele>71.274902</ele>
        <time>2009-07-13T14:59:23Z</time>
      </trkpt>
      <trkpt lat="43.62388" lon="7.07876">
        <ele>71.755493</ele>
        <time>2009-07-13T14:59:30Z</time>
      </trkpt>
      <trkpt lat="43.62391" lon="7.07884">
        <ele>72.236206</ele>
        <time>2009-07-13T14:59:34Z</time>
      </trkpt>
      <trkpt lat="43.62409" lon="7.07908">
        <ele>71.755493</ele>
        <time>2009-07-13T14:59:41Z</time>
      </trkpt>
      <trkpt lat="43.62411" lon="7.07911">
        <ele>71.755493</ele>
        <time>2009-07-13T14:59:43Z</time>
      </trkpt>
      <trkpt lat="43.62422" lon="7.07915">
        <ele>71.274902</ele>
        <time>2009-07-13T14:59:48Z</time>
      </trkpt>
      <trkpt lat="43.62441" lon="7.0793">
        <ele>70.794189</ele>
        <time>2009-07-13T14:59:57Z</time>
      </trkpt>
      <trkpt lat="43.62445" lon="7.07934">
        <ele>71.274902</ele>
        <time>2009-07-13T14:59:59Z</time>
      </trkpt>
      <trkpt lat="43.62457" lon="7.07948">
        <ele>71.274902</ele>
        <time>2009-07-13T15:00:06Z</time>
      </trkpt>
      <trkpt lat="43.62482" lon="7.07978">
        <ele>71.274902</ele>
        <time>2009-07-13T15:00:15Z</time>
      </trkpt>
      <trkpt lat="43.62484" lon="7.07995">
        <ele>71.755493</ele>
        <time>2009-07-13T15:00:22Z</time>
      </trkpt>
      <trkpt lat="43.62483" lon="7.08">
        <ele>71.755493</ele>
        <time>2009-07-13T15:00:24Z</time>
      </trkpt>
      <trkpt lat="43.62503" lon="7.08008">
        <ele>71.274902</ele>
        <time>2009-07-13T15:00:34Z</time>
      </trkpt>
      <trkpt lat="43.62501" lon="7.08014">
        <ele>70.794189</ele>
        <time>2009-07-13T15:00:38Z</time>
      </trkpt>
      <trkpt lat="43.62501" lon="7.08034">
        <ele>70.794189</ele>
        <time>2009-07-13T15:00:48Z</time>
      </trkpt>
      <trkpt lat="43.62514" lon="7.08071">
        <ele>70.313477</ele>
        <time>2009-07-13T15:00:57Z</time>
      </trkpt>
      <trkpt lat="43.62521" lon="7.08086">
        <ele>70.313477</ele>
        <time>2009-07-13T15:01:02Z</time>
      </trkpt>
      <trkpt lat="43.62535" lon="7.08104">
        <ele>70.794189</ele>
        <time>2009-07-13T15:01:07Z</time>
      </trkpt>
      <trkpt lat="43.62556" lon="7.08149">
        <ele>70.313477</ele>
        <time>2009-07-13T15:01:21Z</time>
      </trkpt>
      <trkpt lat="43.62591" lon="7.08144">
        <ele>70.794189</ele>
        <time>2009-07-13T15:01:34Z</time>
      </trkpt>
      <trkpt lat="43.62603" lon="7.08126">
        <ele>71.274902</ele>
        <time>2009-07-13T15:01:40Z</time>
      </trkpt>
      <trkpt lat="43.62625" lon="7.08094">
        <ele>70.794189</ele>
        <time>2009-07-13T15:01:54Z</time>
      </trkpt>
      <trkpt lat="43.62626" lon="7.08082">
        <ele>70.313477</ele>
        <time>2009-07-13T15:01:58Z</time>
      </trkpt>
      <trkpt lat="43.62643" lon="7.08043">
        <ele>70.794189</ele>
        <time>2009-07-13T15:02:09Z</time>
      </trkpt>
      <trkpt lat="43.62648" lon="7.08034">
        <ele>71.274902</ele>
        <time>2009-07-13T15:02:12Z</time>
      </trkpt>
      <trkpt lat="43.62689" lon="7.08">
        <ele>67.910278</ele>
        <time>2009-07-13T15:02:26Z</time>
      </trkpt>
      <trkpt lat="43.6269" lon="7.07998">
        <ele>67.910278</ele>
        <time>2009-07-13T15:02:27Z</time>
      </trkpt>
      <trkpt lat="43.62701" lon="7.07969">
        <ele>68.871582</ele>
        <time>2009-07-13T15:02:38Z</time>
      </trkpt>
      <trkpt lat="43.62709" lon="7.07958">
        <ele>68.390869</ele>
        <time>2009-07-13T15:02:42Z</time>
      </trkpt>
      <trkpt lat="43.62731" lon="7.07926">
        <ele>68.390869</ele>
        <time>2009-07-13T15:02:55Z</time>
      </trkpt>
      <trkpt lat="43.62745" lon="7.07903">
        <ele>66.948975</ele>
        <time>2009-07-13T15:03:06Z</time>
      </trkpt>
      <trkpt lat="43.62755" lon="7.07886">
        <ele>66.948975</ele>
        <time>2009-07-13T15:03:17Z</time>
      </trkpt>
      <trkpt lat="43.62773" lon="7.07879">
        <ele>66.948975</ele>
        <time>2009-07-13T15:03:26Z</time>
      </trkpt>
      <trkpt lat="43.6281" lon="7.07889">
        <ele>66.468262</ele>
        <time>2009-07-13T15:03:41Z</time>
      </trkpt>
      <trkpt lat="43.62811" lon="7.0789">
        <ele>65.987671</ele>
        <time>2009-07-13T15:03:49Z</time>
      </trkpt>
      <trkpt lat="43.62846" lon="7.07921">
        <ele>65.026367</ele>
        <time>2009-07-13T15:04:02Z</time>
      </trkpt>
      <trkpt lat="43.62872" lon="7.0795">
        <ele>65.50708</ele>
        <time>2009-07-13T15:04:14Z</time>
      </trkpt>
      <trkpt lat="43.62919" lon="7.07997">
        <ele>65.50708</ele>
        <time>2009-07-13T15:04:29Z</time>
      </trkpt>
      <trkpt lat="43.62922" lon="7.08001">
        <ele>65.026367</ele>
        <time>2009-07-13T15:04:31Z</time>
      </trkpt>
      <trkpt lat="43.62933" lon="7.08019">
        <ele>65.026367</ele>
        <time>2009-07-13T15:04:37Z</time>
      </trkpt>
      <trkpt lat="43.62949" lon="7.08057">
        <ele>64.545654</ele>
        <time>2009-07-13T15:04:52Z</time>
      </trkpt>
      <trkpt lat="43.6295" lon="7.08065">
        <ele>65.026367</ele>
        <time>2009-07-13T15:04:55Z</time>
      </trkpt>
      <trkpt lat="43.62955" lon="7.08109">
        <ele>64.065063</ele>
        <time>2009-07-13T15:05:11Z</time>
      </trkpt>
      <trkpt lat="43.62949" lon="7.08148">
        <ele>64.065063</ele>
        <time>2009-07-13T15:05:22Z</time>
      </trkpt>
      <trkpt lat="43.6294" lon="7.08195">
        <ele>64.065063</ele>
        <time>2009-07-13T15:05:35Z</time>
      </trkpt>
      <trkpt lat="43.62924" lon="7.08236">
        <ele>64.545654</ele>
        <time>2009-07-13T15:05:49Z</time>
      </trkpt>
      <trkpt lat="43.62915" lon="7.08279">
        <ele>64.065063</ele>
        <time>2009-07-13T15:06:02Z</time>
      </trkpt>
      <trkpt lat="43.62907" lon="7.08297">
        <ele>64.065063</ele>
        <time>2009-07-13T15:06:06Z</time>
      </trkpt>
      <trkpt lat="43.6289" lon="7.08332">
        <ele>64.065063</ele>
        <time>2009-07-13T15:06:17Z</time>
      </trkpt>
      <trkpt lat="43.62882" lon="7.08371">
        <ele>64.065063</ele>
        <time>2009-07-13T15:06:29Z</time>
      </trkpt>
      <trkpt lat="43.62883" lon="7.08374">
        <ele>64.065063</ele>
        <time>2009-07-13T15:06:31Z</time>
      </trkpt>
      <trkpt lat="43.6292" lon="7.08386">
        <ele>64.545654</ele>
        <time>2009-07-13T15:06:45Z</time>
      </trkpt>
      <trkpt lat="43.62927" lon="7.08384">
        <ele>64.545654</ele>
        <time>2009-07-13T15:06:49Z</time>
      </trkpt>
      <trkpt lat="43.62934" lon="7.08391">
        <ele>64.065063</ele>
        <time>2009-07-13T15:06:53Z</time>
      </trkpt>
      <trkpt lat="43.62966" lon="7.08416">
        <ele>64.065063</ele>
        <time>2009-07-13T15:07:07Z</time>
      </trkpt>
      <trkpt lat="43.6299" lon="7.08428">
        <ele>63.584351</ele>
        <time>2009-07-13T15:07:20Z</time>
      </trkpt>
      <trkpt lat="43.63012" lon="7.08455">
        <ele>64.545654</ele>
        <time>2009-07-13T15:07:35Z</time>
      </trkpt>
      <trkpt lat="43.63025" lon="7.08477">
        <ele>64.065063</ele>
        <time>2009-07-13T15:07:45Z</time>
      </trkpt>
      <trkpt lat="43.63052" lon="7.08515">
        <ele>64.065063</ele>
        <time>2009-07-13T15:08:00Z</time>
      </trkpt>
      <trkpt lat="43.6306" lon="7.08558">
        <ele>64.065063</ele>
        <time>2009-07-13T15:08:14Z</time>
      </trkpt>
      <trkpt lat="43.63078" lon="7.08595">
        <ele>65.50708</ele>
        <time>2009-07-13T15:08:27Z</time>
      </trkpt>
      <trkpt lat="43.6308" lon="7.0861">
        <ele>66.468262</ele>
        <time>2009-07-13T15:08:32Z</time>
      </trkpt>
      <trkpt lat="43.63077" lon="7.08629">
        <ele>68.390869</ele>
        <time>2009-07-13T15:08:39Z</time>
      </trkpt>
      <trkpt lat="43.63081" lon="7.08654">
        <ele>71.274902</ele>
        <time>2009-07-13T15:08:48Z</time>
      </trkpt>
      <trkpt lat="43.63077" lon="7.08668">
        <ele>73.197632</ele>
        <time>2009-07-13T15:08:56Z</time>
      </trkpt>
      <trkpt lat="43.63061" lon="7.08683">
        <ele>75.120239</ele>
        <time>2009-07-13T15:09:08Z</time>
      </trkpt>
      <trkpt lat="43.63044" lon="7.08701">
        <ele>76.081421</ele>
        <time>2009-07-13T15:09:17Z</time>
      </trkpt>
      <trkpt lat="43.63032" lon="7.08712">
        <ele>78.004028</ele>
        <time>2009-07-13T15:09:27Z</time>
      </trkpt>
      <trkpt lat="43.63012" lon="7.08727">
        <ele>80.407471</ele>
        <time>2009-07-13T15:09:38Z</time>
      </trkpt>
      <trkpt lat="43.62998" lon="7.08734">
        <ele>80.888184</ele>
        <time>2009-07-13T15:09:46Z</time>
      </trkpt>
      <trkpt lat="43.62984" lon="7.08739">
        <ele>79.926636</ele>
        <time>2009-07-13T15:09:53Z</time>
      </trkpt>
      <trkpt lat="43.62979" lon="7.08762">
        <ele>79.446045</ele>
        <time>2009-07-13T15:10:03Z</time>
      </trkpt>
      <trkpt lat="43.62979" lon="7.08764">
        <ele>78.965454</ele>
        <time>2009-07-13T15:10:04Z</time>
      </trkpt>
      <trkpt lat="43.6298" lon="7.08776">
        <ele>79.446045</ele>
        <time>2009-07-13T15:10:09Z</time>
      </trkpt>
      <trkpt lat="43.62979" lon="7.0879">
        <ele>78.484741</ele>
        <time>2009-07-13T15:10:14Z</time>
      </trkpt>
      <trkpt lat="43.62981" lon="7.08814">
        <ele>77.523438</ele>
        <time>2009-07-13T15:10:22Z</time>
      </trkpt>
      <trkpt lat="43.62996" lon="7.08831">
        <ele>80.407471</ele>
        <time>2009-07-13T15:10:31Z</time>
      </trkpt>
      <trkpt lat="43.62994" lon="7.0884">
        <ele>80.407471</ele>
        <time>2009-07-13T15:10:34Z</time>
      </trkpt>
      <trkpt lat="43.63" lon="7.08869">
        <ele>82.810791</ele>
        <time>2009-07-13T15:10:47Z</time>
      </trkpt>
      <trkpt lat="43.62998" lon="7.08876">
        <ele>83.291382</ele>
        <time>2009-07-13T15:10:51Z</time>
      </trkpt>
      <trkpt lat="43.62989" lon="7.08888">
        <ele>85.69458</ele>
        <time>2009-07-13T15:10:58Z</time>
      </trkpt>
      <trkpt lat="43.62989" lon="7.08892">
        <ele>87.617188</ele>
        <time>2009-07-13T15:11:04Z</time>
      </trkpt>
      <trkpt lat="43.62999" lon="7.08895">
        <ele>90.02063</ele>
        <time>2009-07-13T15:11:12Z</time>
      </trkpt>
      <trkpt lat="43.62992" lon="7.08911">
        <ele>92.904541</ele>
        <time>2009-07-13T15:11:24Z</time>
      </trkpt>
      <trkpt lat="43.62991" lon="7.08913">
        <ele>93.385132</ele>
        <time>2009-07-13T15:11:25Z</time>
      </trkpt>
      <trkpt lat="43.62987" lon="7.08926">
        <ele>93.385132</ele>
        <time>2009-07-13T15:11:31Z</time>
      </trkpt>
      <trkpt lat="43.62979" lon="7.08951">
        <ele>94.346558</ele>
        <time>2009-07-13T15:11:42Z</time>
      </trkpt>
      <trkpt lat="43.62977" lon="7.08955">
        <ele>95.307739</ele>
        <time>2009-07-13T15:11:47Z</time>
      </trkpt>
      <trkpt lat="43.62973" lon="7.08958">
        <ele>96.749878</ele>
        <time>2009-07-13T15:11:56Z</time>
      </trkpt>
      <trkpt lat="43.62969" lon="7.08968">
        <ele>98.672485</ele>
        <time>2009-07-13T15:12:07Z</time>
      </trkpt>
      <trkpt lat="43.62966" lon="7.0897">
        <ele>102.5177</ele>
        <time>2009-07-13T15:12:17Z</time>
      </trkpt>
      <trkpt lat="43.62964" lon="7.08971">
        <ele>102.037109</ele>
        <time>2009-07-13T15:12:18Z</time>
      </trkpt>
      <trkpt lat="43.62957" lon="7.0898">
        <ele>104.44043</ele>
        <time>2009-07-13T15:12:33Z</time>
      </trkpt>
      <trkpt lat="43.62939" lon="7.08995">
        <ele>106.843628</ele>
        <time>2009-07-13T15:12:50Z</time>
      </trkpt>
      <trkpt lat="43.62928" lon="7.08999">
        <ele>107.324341</ele>
        <time>2009-07-13T15:13:02Z</time>
      </trkpt>
      <trkpt lat="43.62918" lon="7.09">
        <ele>107.805054</ele>
        <time>2009-07-13T15:13:12Z</time>
      </trkpt>
      <trkpt lat="43.6291" lon="7.09004">
        <ele>109.246948</ele>
        <time>2009-07-13T15:14:36Z</time>
      </trkpt>
      <trkpt lat="43.62891" lon="7.09042">
        <ele>110.688843</ele>
        <time>2009-07-13T15:14:47Z</time>
      </trkpt>
      <trkpt lat="43.62866" lon="7.09079">
        <ele>109.727661</ele>
        <time>2009-07-13T15:15:00Z</time>
      </trkpt>
      <trkpt lat="43.62856" lon="7.09131">
        <ele>108.285645</ele>
        <time>2009-07-13T15:15:14Z</time>
      </trkpt>
      <trkpt lat="43.62848" lon="7.09194">
        <ele>106.843628</ele>
        <time>2009-07-13T15:15:29Z</time>
      </trkpt>
      <trkpt lat="43.62848" lon="7.09247">
        <ele>105.401733</ele>
        <time>2009-07-13T15:15:42Z</time>
      </trkpt>
      <trkpt lat="43.62861" lon="7.09295">
        <ele>104.44043</ele>
        <time>2009-07-13T15:15:55Z</time>
      </trkpt>
      <trkpt lat="43.62858" lon="7.09341">
        <ele>104.921021</ele>
        <time>2009-07-13T15:16:06Z</time>
      </trkpt>
      <trkpt lat="43.62867" lon="7.094">
        <ele>102.998291</ele>
        <time>2009-07-13T15:16:20Z</time>
      </trkpt>
      <trkpt lat="43.62859" lon="7.0944">
        <ele>101.075684</ele>
        <time>2009-07-13T15:16:30Z</time>
      </trkpt>
      <trkpt lat="43.62845" lon="7.09493">
        <ele>99.153076</ele>
        <time>2009-07-13T15:16:44Z</time>
      </trkpt>
      <trkpt lat="43.62834" lon="7.09543">
        <ele>97.230469</ele>
        <time>2009-07-13T15:16:56Z</time>
      </trkpt>
      <trkpt lat="43.6283" lon="7.09584">
        <ele>96.269287</ele>
        <time>2009-07-13T15:17:06Z</time>
      </trkpt>
      <trkpt lat="43.62809" lon="7.0964">
        <ele>93.385132</ele>
        <time>2009-07-13T15:17:20Z</time>
      </trkpt>
      <trkpt lat="43.62801" lon="7.09663">
        <ele>92.904541</ele>
        <time>2009-07-13T15:17:26Z</time>
      </trkpt>
      <trkpt lat="43.62788" lon="7.09664">
        <ele>92.42395</ele>
        <time>2009-07-13T15:17:31Z</time>
      </trkpt>
      <trkpt lat="43.62788" lon="7.09663">
        <ele>91.943237</ele>
        <time>2009-07-13T15:17:34Z</time>
      </trkpt>
      <trkpt lat="43.62781" lon="7.09658">
        <ele>90.02063</ele>
        <time>2009-07-13T15:17:38Z</time>
      </trkpt>
      <trkpt lat="43.62762" lon="7.09645">
        <ele>86.656006</ele>
        <time>2009-07-13T15:17:46Z</time>
      </trkpt>
      <trkpt lat="43.62739" lon="7.09636">
        <ele>83.291382</ele>
        <time>2009-07-13T15:17:53Z</time>
      </trkpt>
      <trkpt lat="43.62732" lon="7.09631">
        <ele>81.849365</ele>
        <time>2009-07-13T15:17:56Z</time>
      </trkpt>
      <trkpt lat="43.62716" lon="7.09624">
        <ele>78.965454</ele>
        <time>2009-07-13T15:18:02Z</time>
      </trkpt>
      <trkpt lat="43.627" lon="7.09619">
        <ele>75.120239</ele>
        <time>2009-07-13T15:18:07Z</time>
      </trkpt>
      <trkpt lat="43.62696" lon="7.09619">
        <ele>75.120239</ele>
        <time>2009-07-13T15:18:08Z</time>
      </trkpt>
      <trkpt lat="43.62673" lon="7.09616">
        <ele>70.794189</ele>
        <time>2009-07-13T15:18:15Z</time>
      </trkpt>
      <trkpt lat="43.62657" lon="7.09624">
        <ele>70.794189</ele>
        <time>2009-07-13T15:18:20Z</time>
      </trkpt>
      <trkpt lat="43.62651" lon="7.09679">
        <ele>66.468262</ele>
        <time>2009-07-13T15:18:31Z</time>
      </trkpt>
      <trkpt lat="43.6265" lon="7.09683">
        <ele>65.987671</ele>
        <time>2009-07-13T15:18:32Z</time>
      </trkpt>
      <trkpt lat="43.62632" lon="7.09673">
        <ele>62.622925</ele>
        <time>2009-07-13T15:18:40Z</time>
      </trkpt>
      <trkpt lat="43.62629" lon="7.09672">
        <ele>62.622925</ele>
        <time>2009-07-13T15:18:41Z</time>
      </trkpt>
      <trkpt lat="43.62615" lon="7.09668">
        <ele>61.18103</ele>
        <time>2009-07-13T15:18:46Z</time>
      </trkpt>
      <trkpt lat="43.62599" lon="7.09669">
        <ele>59.739136</ele>
        <time>2009-07-13T15:18:51Z</time>
      </trkpt>
      <trkpt lat="43.62596" lon="7.09694">
        <ele>56.374512</ele>
        <time>2009-07-13T15:18:59Z</time>
      </trkpt>
      <trkpt lat="43.62596" lon="7.09729">
        <ele>56.374512</ele>
        <time>2009-07-13T15:19:05Z</time>
      </trkpt>
      <trkpt lat="43.62596" lon="7.09748">
        <ele>56.374512</ele>
        <time>2009-07-13T15:19:15Z</time>
      </trkpt>
      <trkpt lat="43.62596" lon="7.09757">
        <ele>60.700317</ele>
        <time>2009-07-13T15:19:19Z</time>
      </trkpt>
      <trkpt lat="43.62596" lon="7.09757">
        <ele>57.816528</ele>
        <time>2009-07-13T15:19:20Z</time>
      </trkpt>
    </trkseg>
  </trk>
</gpx>